sensor_id;sensor_type;location;lat;lon;timestamp;temperature;humidity
19892;DHT22;10108;50.142;8.724;2023-04-06T00:02:19;5.10;91.50
19892;DHT22;10108;50.142;8.724;2023-04-06T00:04:45;5.00;91.20
19892;DHT22;10108;50.142;8.724;2023-04-06T00:07:11;5.00;91.10
19892;DHT22;10108;50.142;8.724;2023-04-06T00:09:37;5.00;91.40
19892;DHT22;10108;50.142;8.724;2023-04-06T00:12:04;4.90;91.80
19892;DHT22;10108;50.142;8.724;2023-04-06T00:14:30;4.90;92.00
19892;DHT22;10108;50.142;8.724;2023-04-06T00:16:57;4.90;91.70
19892;DHT22;10108;50.142;8.724;2023-04-06T00:19:23;5.00;92.30
19892;DHT22;10108;50.142;8.724;2023-04-06T00:21:49;5.00;92.30
19892;DHT22;10108;50.142;8.724;2023-04-06T00:24:15;5.00;92.10
19892;DHT22;10108;50.142;8.724;2023-04-06T00:26:41;5.00;92.00
19892;DHT22;10108;50.142;8.724;2023-04-06T00:29:08;5.10;91.70
19892;DHT22;10108;50.142;8.724;2023-04-06T00:31:34;5.00;91.60
19892;DHT22;10108;50.142;8.724;2023-04-06T00:34:00;5.00;91.40
19892;DHT22;10108;50.142;8.724;2023-04-06T00:36:26;4.90;91.70
19892;DHT22;10108;50.142;8.724;2023-04-06T00:38:52;4.80;91.90
19892;DHT22;10108;50.142;8.724;2023-04-06T00:41:19;4.80;92.00
19892;DHT22;10108;50.142;8.724;2023-04-06T00:43:46;4.90;92.00
19892;DHT22;10108;50.142;8.724;2023-04-06T00:46:12;4.90;92.10
19892;DHT22;10108;50.142;8.724;2023-04-06T00:48:39;5.00;92.40
19892;DHT22;10108;50.142;8.724;2023-04-06T00:51:06;4.90;92.00
19892;DHT22;10108;50.142;8.724;2023-04-06T00:53:32;4.90;91.90
19892;DHT22;10108;50.142;8.724;2023-04-06T00:56:01;4.90;91.70
19892;DHT22;10108;50.142;8.724;2023-04-06T00:58:28;5.00;91.90
19892;DHT22;10108;50.142;8.724;2023-04-06T01:01:02;5.00;91.80
19892;DHT22;10108;50.142;8.724;2023-04-06T01:03:28;4.90;92.00
19892;DHT22;10108;50.142;8.724;2023-04-06T01:05:54;4.90;91.70
19892;DHT22;10108;50.142;8.724;2023-04-06T01:08:28;4.80;92.50
19892;DHT22;10108;50.142;8.724;2023-04-06T01:11:07;4.70;92.60
19892;DHT22;10108;50.142;8.724;2023-04-06T01:13:33;4.60;92.20
19892;DHT22;10108;50.142;8.724;2023-04-06T01:16:03;4.50;92.60
19892;DHT22;10108;50.142;8.724;2023-04-06T01:18:47;4.40;92.80
19892;DHT22;10108;50.142;8.724;2023-04-06T01:21:17;4.40;92.60
19892;DHT22;10108;50.142;8.724;2023-04-06T01:24:08;4.50;92.60
19892;DHT22;10108;50.142;8.724;2023-04-06T01:26:49;4.40;92.60
19892;DHT22;10108;50.142;8.724;2023-04-06T01:29:15;4.50;92.90
19892;DHT22;10108;50.142;8.724;2023-04-06T01:31:42;4.40;93.00
19892;DHT22;10108;50.142;8.724;2023-04-06T01:34:08;4.40;93.00
19892;DHT22;10108;50.142;8.724;2023-04-06T01:36:35;4.40;93.10
19892;DHT22;10108;50.142;8.724;2023-04-06T01:39:16;4.40;93.30
19892;DHT22;10108;50.142;8.724;2023-04-06T01:41:42;4.40;93.10
19892;DHT22;10108;50.142;8.724;2023-04-06T01:44:09;4.40;92.60
19892;DHT22;10108;50.142;8.724;2023-04-06T01:46:35;4.50;92.80
19892;DHT22;10108;50.142;8.724;2023-04-06T01:49:04;4.50;93.20
19892;DHT22;10108;50.142;8.724;2023-04-06T01:51:36;4.50;93.50
19892;DHT22;10108;50.142;8.724;2023-04-06T01:54:05;4.40;93.50
19892;DHT22;10108;50.142;8.724;2023-04-06T01:56:49;4.40;93.70
19892;DHT22;10108;50.142;8.724;2023-04-06T01:59:29;4.40;94.10
19892;DHT22;10108;50.142;8.724;2023-04-06T02:01:56;4.40;94.20
19892;DHT22;10108;50.142;8.724;2023-04-06T02:04:24;4.30;94.30
19892;DHT22;10108;50.142;8.724;2023-04-06T02:06:58;4.30;94.50
19892;DHT22;10108;50.142;8.724;2023-04-06T02:09:26;4.30;94.20
19892;DHT22;10108;50.142;8.724;2023-04-06T02:11:53;4.30;94.40
19892;DHT22;10108;50.142;8.724;2023-04-06T02:14:19;4.30;93.50
19892;DHT22;10108;50.142;8.724;2023-04-06T02:16:50;4.30;92.70
19892;DHT22;10108;50.142;8.724;2023-04-06T02:19:17;4.20;93.30
19892;DHT22;10108;50.142;8.724;2023-04-06T02:21:43;4.20;93.90
19892;DHT22;10108;50.142;8.724;2023-04-06T02:24:09;4.10;93.80
19892;DHT22;10108;50.142;8.724;2023-04-06T02:26:35;4.00;93.80
19892;DHT22;10108;50.142;8.724;2023-04-06T02:29:02;3.90;93.40
19892;DHT22;10108;50.142;8.724;2023-04-06T02:31:28;3.80;94.40
19892;DHT22;10108;50.142;8.724;2023-04-06T02:33:54;3.80;95.30
19892;DHT22;10108;50.142;8.724;2023-04-06T02:36:21;3.80;95.90
19892;DHT22;10108;50.142;8.724;2023-04-06T02:38:47;3.90;95.90
19892;DHT22;10108;50.142;8.724;2023-04-06T02:41:13;3.90;96.30
19892;DHT22;10108;50.142;8.724;2023-04-06T02:43:39;4.00;96.00
19892;DHT22;10108;50.142;8.724;2023-04-06T02:46:16;3.90;96.60
19892;DHT22;10108;50.142;8.724;2023-04-06T02:48:42;3.80;97.10
19892;DHT22;10108;50.142;8.724;2023-04-06T02:51:09;3.80;97.30
19892;DHT22;10108;50.142;8.724;2023-04-06T02:53:36;3.80;97.50
19892;DHT22;10108;50.142;8.724;2023-04-06T02:56:02;3.80;98.40
19892;DHT22;10108;50.142;8.724;2023-04-06T02:58:40;3.90;99.30
19892;DHT22;10108;50.142;8.724;2023-04-06T03:01:06;3.90;99.60
19892;DHT22;10108;50.142;8.724;2023-04-06T03:03:33;3.80;96.00
19892;DHT22;10108;50.142;8.724;2023-04-06T03:05:59;3.80;96.70
19892;DHT22;10108;50.142;8.724;2023-04-06T03:08:29;3.70;96.20
19892;DHT22;10108;50.142;8.724;2023-04-06T03:10:56;3.70;96.80
19892;DHT22;10108;50.142;8.724;2023-04-06T03:13:28;3.80;96.60
19892;DHT22;10108;50.142;8.724;2023-04-06T03:15:57;3.80;97.30
19892;DHT22;10108;50.142;8.724;2023-04-06T03:18:24;3.80;95.60
19892;DHT22;10108;50.142;8.724;2023-04-06T03:20:52;3.70;95.30
19892;DHT22;10108;50.142;8.724;2023-04-06T03:23:25;3.70;95.60
19892;DHT22;10108;50.142;8.724;2023-04-06T03:25:56;3.70;96.10
19892;DHT22;10108;50.142;8.724;2023-04-06T03:28:23;3.70;96.70
19892;DHT22;10108;50.142;8.724;2023-04-06T03:30:53;3.70;98.50
19892;DHT22;10108;50.142;8.724;2023-04-06T03:33:35;3.70;97.20
19892;DHT22;10108;50.142;8.724;2023-04-06T03:38:30;3.60;99.80
19892;DHT22;10108;50.142;8.724;2023-04-06T03:40:56;3.80;97.10
19892;DHT22;10108;50.142;8.724;2023-04-06T03:43:26;3.80;98.00
19892;DHT22;10108;50.142;8.724;2023-04-06T03:45:52;3.70;97.60
19892;DHT22;10108;50.142;8.724;2023-04-06T03:48:19;3.80;97.60
19892;DHT22;10108;50.142;8.724;2023-04-06T03:53:11;3.70;98.60
19892;DHT22;10108;50.142;8.724;2023-04-06T03:55:37;3.80;98.80
19892;DHT22;10108;50.142;8.724;2023-04-06T04:25:06;3.90;99.90
19892;DHT22;10108;50.142;8.724;2023-04-06T04:27:37;3.40;97.70
19892;DHT22;10108;50.142;8.724;2023-04-06T04:30:04;3.40;97.30
19892;DHT22;10108;50.142;8.724;2023-04-06T04:32:31;3.30;96.20
19892;DHT22;10108;50.142;8.724;2023-04-06T04:34:59;3.30;94.90
19892;DHT22;10108;50.142;8.724;2023-04-06T04:37:34;3.30;94.50
19892;DHT22;10108;50.142;8.724;2023-04-06T04:40:01;3.30;94.90
19892;DHT22;10108;50.142;8.724;2023-04-06T04:42:31;3.20;95.10
19892;DHT22;10108;50.142;8.724;2023-04-06T04:44:59;3.20;95.50
19892;DHT22;10108;50.142;8.724;2023-04-06T04:47:36;3.20;95.70
19892;DHT22;10108;50.142;8.724;2023-04-06T04:50:03;3.20;95.20
19892;DHT22;10108;50.142;8.724;2023-04-06T04:52:30;3.20;95.40
19892;DHT22;10108;50.142;8.724;2023-04-06T04:55:08;3.10;95.40
19892;DHT22;10108;50.142;8.724;2023-04-06T04:57:34;3.10;95.50
19892;DHT22;10108;50.142;8.724;2023-04-06T05:00:00;3.10;95.60
19892;DHT22;10108;50.142;8.724;2023-04-06T05:02:29;3.20;95.20
19892;DHT22;10108;50.142;8.724;2023-04-06T05:05:27;3.30;95.00
19892;DHT22;10108;50.142;8.724;2023-04-06T05:07:54;3.30;95.20
19892;DHT22;10108;50.142;8.724;2023-04-06T05:10:30;3.30;95.30
19892;DHT22;10108;50.142;8.724;2023-04-06T05:13:00;3.30;95.10
19892;DHT22;10108;50.142;8.724;2023-04-06T05:15:27;3.30;95.00
19892;DHT22;10108;50.142;8.724;2023-04-06T05:17:58;3.40;95.00
19892;DHT22;10108;50.142;8.724;2023-04-06T05:20:31;3.40;94.90
19892;DHT22;10108;50.142;8.724;2023-04-06T05:22:58;3.40;94.90
19892;DHT22;10108;50.142;8.724;2023-04-06T05:25:24;3.40;95.00
19892;DHT22;10108;50.142;8.724;2023-04-06T05:27:53;3.50;95.20
19892;DHT22;10108;50.142;8.724;2023-04-06T05:30:44;3.50;95.10
19892;DHT22;10108;50.142;8.724;2023-04-06T05:33:38;3.50;95.20
19892;DHT22;10108;50.142;8.724;2023-04-06T05:36:32;3.50;95.20
19892;DHT22;10108;50.142;8.724;2023-04-06T05:39:23;3.50;95.40
19892;DHT22;10108;50.142;8.724;2023-04-06T05:42:15;3.50;95.60
19892;DHT22;10108;50.142;8.724;2023-04-06T05:45:07;3.50;95.50
19892;DHT22;10108;50.142;8.724;2023-04-06T05:47:58;3.50;95.50
19892;DHT22;10108;50.142;8.724;2023-04-06T05:50:28;3.50;95.20
19892;DHT22;10108;50.142;8.724;2023-04-06T05:52:56;3.50;95.50
19892;DHT22;10108;50.142;8.724;2023-04-06T05:55:26;3.50;95.50
19892;DHT22;10108;50.142;8.724;2023-04-06T05:58:05;3.50;95.60
19892;DHT22;10108;50.142;8.724;2023-04-06T06:00:31;3.50;95.40
19892;DHT22;10108;50.142;8.724;2023-04-06T06:03:03;3.60;95.50
19892;DHT22;10108;50.142;8.724;2023-04-06T06:05:31;3.60;95.60
19892;DHT22;10108;50.142;8.724;2023-04-06T06:08:04;3.60;95.50
19892;DHT22;10108;50.142;8.724;2023-04-06T06:10:56;3.70;95.40
19892;DHT22;10108;50.142;8.724;2023-04-06T06:13:47;3.80;95.30
19892;DHT22;10108;50.142;8.724;2023-04-06T06:16:40;3.90;95.30
19892;DHT22;10108;50.142;8.724;2023-04-06T06:19:31;3.90;95.00
19892;DHT22;10108;50.142;8.724;2023-04-06T06:22:23;4.00;95.30
19892;DHT22;10108;50.142;8.724;2023-04-06T06:25:17;4.00;94.90
19892;DHT22;10108;50.142;8.724;2023-04-06T06:28:09;4.10;94.70
19892;DHT22;10108;50.142;8.724;2023-04-06T06:30:35;4.20;94.70
19892;DHT22;10108;50.142;8.724;2023-04-06T06:33:07;4.30;94.40
19892;DHT22;10108;50.142;8.724;2023-04-06T06:35:40;4.30;94.30
19892;DHT22;10108;50.142;8.724;2023-04-06T06:38:31;4.30;94.00
19892;DHT22;10108;50.142;8.724;2023-04-06T06:41:22;4.40;94.10
19892;DHT22;10108;50.142;8.724;2023-04-06T06:43:49;4.40;94.00
19892;DHT22;10108;50.142;8.724;2023-04-06T06:46:15;4.40;94.10
19892;DHT22;10108;50.142;8.724;2023-04-06T06:48:41;4.50;94.00
19892;DHT22;10108;50.142;8.724;2023-04-06T06:51:10;4.50;94.00
19892;DHT22;10108;50.142;8.724;2023-04-06T06:54:03;4.50;94.30
19892;DHT22;10108;50.142;8.724;2023-04-06T06:56:34;4.60;94.10
19892;DHT22;10108;50.142;8.724;2023-04-06T06:59:04;4.60;94.00
19892;DHT22;10108;50.142;8.724;2023-04-06T07:01:55;4.70;94.10
19892;DHT22;10108;50.142;8.724;2023-04-06T07:04:22;4.70;93.60
19892;DHT22;10108;50.142;8.724;2023-04-06T07:07:13;4.70;93.30
19892;DHT22;10108;50.142;8.724;2023-04-06T07:10:06;4.70;93.30
19892;DHT22;10108;50.142;8.724;2023-04-06T07:12:33;4.80;93.30
19892;DHT22;10108;50.142;8.724;2023-04-06T07:14:59;4.80;93.50
19892;DHT22;10108;50.142;8.724;2023-04-06T07:17:25;4.90;93.20
19892;DHT22;10108;50.142;8.724;2023-04-06T07:19:52;5.00;93.10
19892;DHT22;10108;50.142;8.724;2023-04-06T07:22:18;5.10;93.00
19892;DHT22;10108;50.142;8.724;2023-04-06T07:24:44;5.10;92.60
19892;DHT22;10108;50.142;8.724;2023-04-06T07:27:10;5.10;92.30
19892;DHT22;10108;50.142;8.724;2023-04-06T07:29:37;5.10;92.40
19892;DHT22;10108;50.142;8.724;2023-04-06T07:32:03;5.10;92.50
19892;DHT22;10108;50.142;8.724;2023-04-06T07:34:32;5.10;92.40
19892;DHT22;10108;50.142;8.724;2023-04-06T07:36:59;5.20;92.30
19892;DHT22;10108;50.142;8.724;2023-04-06T07:39:28;5.20;92.10
19892;DHT22;10108;50.142;8.724;2023-04-06T07:41:56;5.30;92.50
19892;DHT22;10108;50.142;8.724;2023-04-06T07:44:22;5.30;92.60
19892;DHT22;10108;50.142;8.724;2023-04-06T07:46:49;5.30;92.70
19892;DHT22;10108;50.142;8.724;2023-04-06T07:49:16;5.40;92.50
19892;DHT22;10108;50.142;8.724;2023-04-06T07:51:43;5.40;92.20
19892;DHT22;10108;50.142;8.724;2023-04-06T07:54:10;5.40;92.40
19892;DHT22;10108;50.142;8.724;2023-04-06T07:56:36;5.50;92.10
19892;DHT22;10108;50.142;8.724;2023-04-06T07:59:02;5.50;92.10
19892;DHT22;10108;50.142;8.724;2023-04-06T08:01:29;5.60;91.90
19892;DHT22;10108;50.142;8.724;2023-04-06T08:03:57;5.60;91.70
19892;DHT22;10108;50.142;8.724;2023-04-06T08:06:23;5.70;92.30
19892;DHT22;10108;50.142;8.724;2023-04-06T08:08:50;5.80;92.00
19892;DHT22;10108;50.142;8.724;2023-04-06T08:11:16;5.80;91.70
19892;DHT22;10108;50.142;8.724;2023-04-06T08:13:42;5.90;91.50
19892;DHT22;10108;50.142;8.724;2023-04-06T08:16:09;6.00;92.60
19892;DHT22;10108;50.142;8.724;2023-04-06T08:18:35;6.10;92.40
19892;DHT22;10108;50.142;8.724;2023-04-06T08:21:02;6.10;91.50
19892;DHT22;10108;50.142;8.724;2023-04-06T08:23:28;6.20;92.60
19892;DHT22;10108;50.142;8.724;2023-04-06T08:25:54;6.30;92.90
19892;DHT22;10108;50.142;8.724;2023-04-06T08:28:22;6.40;92.20
19892;DHT22;10108;50.142;8.724;2023-04-06T08:30:48;6.40;91.10
19892;DHT22;10108;50.142;8.724;2023-04-06T08:33:14;6.40;90.80
19892;DHT22;10108;50.142;8.724;2023-04-06T08:35:41;6.40;90.90
19892;DHT22;10108;50.142;8.724;2023-04-06T08:38:08;6.50;90.70
19892;DHT22;10108;50.142;8.724;2023-04-06T08:40:38;6.50;91.00
19892;DHT22;10108;50.142;8.724;2023-04-06T08:43:12;6.60;90.60
19892;DHT22;10108;50.142;8.724;2023-04-06T08:45:41;6.70;90.90
19892;DHT22;10108;50.142;8.724;2023-04-06T08:48:09;6.70;90.50
19892;DHT22;10108;50.142;8.724;2023-04-06T08:50:36;6.80;90.40
19892;DHT22;10108;50.142;8.724;2023-04-06T08:53:05;6.80;90.30
19892;DHT22;10108;50.142;8.724;2023-04-06T08:55:32;6.80;89.30
19892;DHT22;10108;50.142;8.724;2023-04-06T08:57:59;6.80;89.90
19892;DHT22;10108;50.142;8.724;2023-04-06T09:00:26;6.90;91.00
19892;DHT22;10108;50.142;8.724;2023-04-06T09:02:54;6.90;90.00
19892;DHT22;10108;50.142;8.724;2023-04-06T09:05:22;6.90;91.30
19892;DHT22;10108;50.142;8.724;2023-04-06T09:07:49;6.90;92.60
19892;DHT22;10108;50.142;8.724;2023-04-06T09:10:16;7.00;91.40
19892;DHT22;10108;50.142;8.724;2023-04-06T09:12:43;7.00;90.30
19892;DHT22;10108;50.142;8.724;2023-04-06T09:15:20;7.10;90.00
19892;DHT22;10108;50.142;8.724;2023-04-06T09:17:47;7.10;90.10
19892;DHT22;10108;50.142;8.724;2023-04-06T09:20:13;7.20;92.40
19892;DHT22;10108;50.142;8.724;2023-04-06T09:22:40;7.20;90.40
19892;DHT22;10108;50.142;8.724;2023-04-06T09:25:19;7.30;90.00
19892;DHT22;10108;50.142;8.724;2023-04-06T09:27:47;7.40;90.50
19892;DHT22;10108;50.142;8.724;2023-04-06T09:30:51;7.40;90.20
19892;DHT22;10108;50.142;8.724;2023-04-06T09:33:45;7.50;91.20
19892;DHT22;10108;50.142;8.724;2023-04-06T09:36:37;7.60;91.30
19892;DHT22;10108;50.142;8.724;2023-04-06T09:39:07;7.70;92.50
19892;DHT22;10108;50.142;8.724;2023-04-06T09:41:35;7.70;93.50
19892;DHT22;10108;50.142;8.724;2023-04-06T09:44:07;7.80;92.10
19892;DHT22;10108;50.142;8.724;2023-04-06T09:46:36;7.80;90.90
19892;DHT22;10108;50.142;8.724;2023-04-06T09:49:06;7.90;90.20
19892;DHT22;10108;50.142;8.724;2023-04-06T09:51:46;8.00;95.60
19892;DHT22;10108;50.142;8.724;2023-04-06T09:54:18;8.00;95.80
19892;DHT22;10108;50.142;8.724;2023-04-06T09:59:41;8.10;93.00
19892;DHT22;10108;50.142;8.724;2023-04-06T10:02:29;8.10;91.10
19892;DHT22;10108;50.142;8.724;2023-04-06T10:05:05;8.10;90.30
19892;DHT22;10108;50.142;8.724;2023-04-06T10:07:35;8.20;90.00
19892;DHT22;10108;50.142;8.724;2023-04-06T10:10:05;8.20;87.50
19892;DHT22;10108;50.142;8.724;2023-04-06T10:12:31;8.20;92.80
19892;DHT22;10108;50.142;8.724;2023-04-06T10:14:58;8.30;89.70
19892;DHT22;10108;50.142;8.724;2023-04-06T10:17:24;8.30;87.10
19892;DHT22;10108;50.142;8.724;2023-04-06T10:20:13;8.40;87.40
19892;DHT22;10108;50.142;8.724;2023-04-06T10:26:04;8.50;87.50
19892;DHT22;10108;50.142;8.724;2023-04-06T10:28:33;8.60;87.50
19892;DHT22;10108;50.142;8.724;2023-04-06T10:31:05;8.70;88.90
19892;DHT22;10108;50.142;8.724;2023-04-06T10:33:31;8.70;84.00
19892;DHT22;10108;50.142;8.724;2023-04-06T10:35:58;8.80;90.70
19892;DHT22;10108;50.142;8.724;2023-04-06T10:38:36;8.80;91.40
19892;DHT22;10108;50.142;8.724;2023-04-06T10:41:07;8.90;87.20
19892;DHT22;10108;50.142;8.724;2023-04-06T10:43:38;8.90;93.40
19892;DHT22;10108;50.142;8.724;2023-04-06T10:46:06;8.90;88.10
19892;DHT22;10108;50.142;8.724;2023-04-06T10:48:43;8.90;90.20
19892;DHT22;10108;50.142;8.724;2023-04-06T10:51:18;8.90;91.50
19892;DHT22;10108;50.142;8.724;2023-04-06T10:53:48;9.00;95.00
19892;DHT22;10108;50.142;8.724;2023-04-06T10:56:20;9.10;92.80
19892;DHT22;10108;50.142;8.724;2023-04-06T10:59:12;9.00;88.50
19892;DHT22;10108;50.142;8.724;2023-04-06T11:02:06;9.10;93.70
19892;DHT22;10108;50.142;8.724;2023-04-06T11:04:57;9.20;93.40
19892;DHT22;10108;50.142;8.724;2023-04-06T11:07:56;9.30;91.80
19892;DHT22;10108;50.142;8.724;2023-04-06T11:10:47;9.30;90.60
19892;DHT22;10108;50.142;8.724;2023-04-06T11:14:05;9.40;87.60
19892;DHT22;10108;50.142;8.724;2023-04-06T11:16:56;9.40;85.20
19892;DHT22;10108;50.142;8.724;2023-04-06T11:19:49;9.50;92.40
19892;DHT22;10108;50.142;8.724;2023-04-06T11:22:53;9.60;95.60
19892;DHT22;10108;50.142;8.724;2023-04-06T11:25:52;9.60;92.50
19892;DHT22;10108;50.142;8.724;2023-04-06T11:28:45;9.70;94.80
19892;DHT22;10108;50.142;8.724;2023-04-06T11:31:40;9.60;93.10
19892;DHT22;10108;50.142;8.724;2023-04-06T11:34:39;9.70;92.00
19892;DHT22;10108;50.142;8.724;2023-04-06T11:37:57;9.70;92.90
19892;DHT22;10108;50.142;8.724;2023-04-06T11:40:55;9.80;92.50
19892;DHT22;10108;50.142;8.724;2023-04-06T11:43:47;10.00;92.60
19892;DHT22;10108;50.142;8.724;2023-04-06T11:46:39;10.10;92.00
19892;DHT22;10108;50.142;8.724;2023-04-06T11:49:40;10.30;95.30
19892;DHT22;10108;50.142;8.724;2023-04-06T11:52:32;10.30;95.10
19892;DHT22;10108;50.142;8.724;2023-04-06T11:55:11;10.30;96.40
19892;DHT22;10108;50.142;8.724;2023-04-06T11:57:39;10.20;92.40
19892;DHT22;10108;50.142;8.724;2023-04-06T12:00:30;10.20;86.00
19892;DHT22;10108;50.142;8.724;2023-04-06T12:03:25;10.30;87.90
19892;DHT22;10108;50.142;8.724;2023-04-06T12:06:16;10.50;96.40
19892;DHT22;10108;50.142;8.724;2023-04-06T12:09:11;10.60;94.10
19892;DHT22;10108;50.142;8.724;2023-04-06T12:12:03;10.70;98.50
19892;DHT22;10108;50.142;8.724;2023-04-06T12:15:19;10.70;95.60
19892;DHT22;10108;50.142;8.724;2023-04-06T12:17:45;10.80;91.70
19892;DHT22;10108;50.142;8.724;2023-04-06T12:20:12;10.90;91.70
19892;DHT22;10108;50.142;8.724;2023-04-06T12:23:07;11.00;87.80
19892;DHT22;10108;50.142;8.724;2023-04-06T12:26:01;11.10;91.70
19892;DHT22;10108;50.142;8.724;2023-04-06T12:28:53;11.00;86.40
19892;DHT22;10108;50.142;8.724;2023-04-06T12:31:50;11.00;84.40
19892;DHT22;10108;50.142;8.724;2023-04-06T12:34:42;11.10;90.70
19892;DHT22;10108;50.142;8.724;2023-04-06T12:37:35;11.10;83.30
19892;DHT22;10108;50.142;8.724;2023-04-06T12:40:27;11.20;79.30
19892;DHT22;10108;50.142;8.724;2023-04-06T12:43:18;11.20;93.30
19892;DHT22;10108;50.142;8.724;2023-04-06T12:46:09;11.20;93.20
19892;DHT22;10108;50.142;8.724;2023-04-06T12:49:12;11.30;86.40
19892;DHT22;10108;50.142;8.724;2023-04-06T12:52:04;11.40;92.50
19892;DHT22;10108;50.142;8.724;2023-04-06T12:54:55;11.50;87.10
19892;DHT22;10108;50.142;8.724;2023-04-06T12:57:47;11.60;91.00
19892;DHT22;10108;50.142;8.724;2023-04-06T13:00:44;11.60;82.10
19892;DHT22;10108;50.142;8.724;2023-04-06T13:03:36;11.70;79.30
19892;DHT22;10108;50.142;8.724;2023-04-06T13:06:30;11.70;85.80
19892;DHT22;10108;50.142;8.724;2023-04-06T13:09:23;11.70;92.10
19892;DHT22;10108;50.142;8.724;2023-04-06T13:12:14;11.60;92.50
19892;DHT22;10108;50.142;8.724;2023-04-06T13:15:09;11.50;90.20
19892;DHT22;10108;50.142;8.724;2023-04-06T13:18:00;11.50;79.20
19892;DHT22;10108;50.142;8.724;2023-04-06T13:20:55;11.60;91.20
19892;DHT22;10108;50.142;8.724;2023-04-06T13:23:47;11.70;97.40
19892;DHT22;10108;50.142;8.724;2023-04-06T13:26:42;11.70;93.10
19892;DHT22;10108;50.142;8.724;2023-04-06T13:29:33;11.70;87.20
19892;DHT22;10108;50.142;8.724;2023-04-06T13:32:28;11.70;90.30
19892;DHT22;10108;50.142;8.724;2023-04-06T13:35:22;11.70;93.00
19892;DHT22;10108;50.142;8.724;2023-04-06T13:38:13;11.70;93.10
19892;DHT22;10108;50.142;8.724;2023-04-06T13:41:10;11.70;81.30
19892;DHT22;10108;50.142;8.724;2023-04-06T13:44:08;11.70;86.60
19892;DHT22;10108;50.142;8.724;2023-04-06T13:47:02;11.80;86.40
19892;DHT22;10108;50.142;8.724;2023-04-06T13:49:54;11.80;78.30
19892;DHT22;10108;50.142;8.724;2023-04-06T13:52:57;11.90;77.30
19892;DHT22;10108;50.142;8.724;2023-04-06T13:55:55;11.90;79.10
19892;DHT22;10108;50.142;8.724;2023-04-06T13:58:49;11.90;87.50
19892;DHT22;10108;50.142;8.724;2023-04-06T14:01:43;11.80;79.50
19892;DHT22;10108;50.142;8.724;2023-04-06T14:04:34;11.80;79.50
19892;DHT22;10108;50.142;8.724;2023-04-06T14:07:26;11.80;76.70
19892;DHT22;10108;50.142;8.724;2023-04-06T14:10:17;11.80;88.00
19892;DHT22;10108;50.142;8.724;2023-04-06T14:13:08;11.70;80.20
19892;DHT22;10108;50.142;8.724;2023-04-06T14:16:00;11.70;78.00
19892;DHT22;10108;50.142;8.724;2023-04-06T14:18:26;11.80;80.30
19892;DHT22;10108;50.142;8.724;2023-04-06T14:21:21;11.90;88.00
19892;DHT22;10108;50.142;8.724;2023-04-06T14:24:15;11.90;92.10
19892;DHT22;10108;50.142;8.724;2023-04-06T14:27:07;11.90;89.60
19892;DHT22;10108;50.142;8.724;2023-04-06T14:29:33;11.80;87.50
19892;DHT22;10108;50.142;8.724;2023-04-06T14:32:01;11.80;91.30
19892;DHT22;10108;50.142;8.724;2023-04-06T14:34:27;11.80;92.00
19892;DHT22;10108;50.142;8.724;2023-04-06T14:37:19;11.80;84.50
19892;DHT22;10108;50.142;8.724;2023-04-06T14:40:12;11.70;78.00
19892;DHT22;10108;50.142;8.724;2023-04-06T14:43:03;11.70;91.40
19892;DHT22;10108;50.142;8.724;2023-04-06T14:46:01;11.70;75.60
19892;DHT22;10108;50.142;8.724;2023-04-06T14:48:56;11.70;91.60
19892;DHT22;10108;50.142;8.724;2023-04-06T14:51:48;11.70;94.10
19892;DHT22;10108;50.142;8.724;2023-04-06T14:54:39;11.70;86.50
19892;DHT22;10108;50.142;8.724;2023-04-06T14:57:33;11.70;83.40
19892;DHT22;10108;50.142;8.724;2023-04-06T15:00:28;11.60;88.60
19892;DHT22;10108;50.142;8.724;2023-04-06T15:03:19;11.70;89.70
19892;DHT22;10108;50.142;8.724;2023-04-06T15:06:13;11.70;80.90
19892;DHT22;10108;50.142;8.724;2023-04-06T15:09:16;11.70;82.40
19892;DHT22;10108;50.142;8.724;2023-04-06T15:11:45;11.70;87.70
19892;DHT22;10108;50.142;8.724;2023-04-06T15:14:15;11.70;92.60
19892;DHT22;10108;50.142;8.724;2023-04-06T15:17:06;11.80;93.90
19892;DHT22;10108;50.142;8.724;2023-04-06T15:19:32;11.70;82.90
19892;DHT22;10108;50.142;8.724;2023-04-06T15:21:58;11.70;83.50
19892;DHT22;10108;50.142;8.724;2023-04-06T15:24:24;11.70;84.90
19892;DHT22;10108;50.142;8.724;2023-04-06T15:26:50;11.70;78.20
19892;DHT22;10108;50.142;8.724;2023-04-06T15:29:18;11.70;90.60
19892;DHT22;10108;50.142;8.724;2023-04-06T15:31:54;11.70;92.70
19892;DHT22;10108;50.142;8.724;2023-04-06T15:34:21;11.70;92.50
19892;DHT22;10108;50.142;8.724;2023-04-06T15:36:47;11.70;87.70
19892;DHT22;10108;50.142;8.724;2023-04-06T15:39:14;11.70;92.70
19892;DHT22;10108;50.142;8.724;2023-04-06T15:41:41;11.60;89.80
19892;DHT22;10108;50.142;8.724;2023-04-06T15:44:11;11.70;92.20
19892;DHT22;10108;50.142;8.724;2023-04-06T15:46:38;11.70;92.20
19892;DHT22;10108;50.142;8.724;2023-04-06T15:49:04;11.60;84.30
19892;DHT22;10108;50.142;8.724;2023-04-06T15:51:34;11.60;80.30
19892;DHT22;10108;50.142;8.724;2023-04-06T15:54:00;11.60;90.90
19892;DHT22;10108;50.142;8.724;2023-04-06T15:56:26;11.60;88.20
19892;DHT22;10108;50.142;8.724;2023-04-06T15:58:53;11.60;95.60
19892;DHT22;10108;50.142;8.724;2023-04-06T16:01:19;11.50;93.40
19892;DHT22;10108;50.142;8.724;2023-04-06T16:03:47;11.50;93.50
19892;DHT22;10108;50.142;8.724;2023-04-06T16:06:15;11.40;90.80
19892;DHT22;10108;50.142;8.724;2023-04-06T16:08:41;11.40;83.90
19892;DHT22;10108;50.142;8.724;2023-04-06T16:11:08;11.30;86.00
19892;DHT22;10108;50.142;8.724;2023-04-06T16:13:35;11.30;90.60
19892;DHT22;10108;50.142;8.724;2023-04-06T16:16:01;11.40;96.70
19892;DHT22;10108;50.142;8.724;2023-04-06T16:18:31;11.30;91.90
19892;DHT22;10108;50.142;8.724;2023-04-06T16:20:57;11.30;89.70
19892;DHT22;10108;50.142;8.724;2023-04-06T16:23:46;11.30;92.20
19892;DHT22;10108;50.142;8.724;2023-04-06T16:26:14;11.30;92.80
19892;DHT22;10108;50.142;8.724;2023-04-06T16:28:44;11.30;93.90
19892;DHT22;10108;50.142;8.724;2023-04-06T16:31:22;11.30;91.60
19892;DHT22;10108;50.142;8.724;2023-04-06T16:33:55;11.40;92.30
19892;DHT22;10108;50.142;8.724;2023-04-06T16:36:26;11.30;92.70
19892;DHT22;10108;50.142;8.724;2023-04-06T16:38:53;11.30;86.30
19892;DHT22;10108;50.142;8.724;2023-04-06T16:41:20;11.30;96.20
19892;DHT22;10108;50.142;8.724;2023-04-06T16:43:48;11.30;94.00
19892;DHT22;10108;50.142;8.724;2023-04-06T16:46:16;11.30;93.20
19892;DHT22;10108;50.142;8.724;2023-04-06T16:48:42;11.20;85.20
19892;DHT22;10108;50.142;8.724;2023-04-06T16:51:09;11.20;85.10
19892;DHT22;10108;50.142;8.724;2023-04-06T16:53:36;11.20;87.70
19892;DHT22;10108;50.142;8.724;2023-04-06T16:56:04;11.20;81.50
19892;DHT22;10108;50.142;8.724;2023-04-06T16:58:32;11.20;93.30
19892;DHT22;10108;50.142;8.724;2023-04-06T17:00:58;11.20;87.50
19892;DHT22;10108;50.142;8.724;2023-04-06T17:03:28;11.20;84.40
19892;DHT22;10108;50.142;8.724;2023-04-06T17:05:54;11.10;83.10
19892;DHT22;10108;50.142;8.724;2023-04-06T17:08:20;11.10;79.30
19892;DHT22;10108;50.142;8.724;2023-04-06T17:10:47;11.00;78.50
19892;DHT22;10108;50.142;8.724;2023-04-06T17:13:13;11.00;81.60